Benoni, South Africa
Current Conditions -  °F | °C
As of 1:30 PM on Monday 20 Oct 2014 (Local Time) from FAOR Reporting Station
Clear Clear  
Wind Chill: 79°   Ceiling: Unl
Heat Index: 79°   Visibility: 6mi
Dew Point: 36°   Wind: 9mph
Humidity: 21%   Direction: 260°W
Pressure: 30.21"   Gusts: 23mph
Location:  26.15°S, 28.33°E
Report Text: FAOR 201130Z 26008G20KT 220V310 CAVOK 26/02 Q1023 NOSIG
Loading
Personal Weather Stations






























Interactive Weather Map
Tropical Storm Tracking
New forecast layout! Learn more

10-Day Weather Forecast

Advertisements
Track Severe Weather on mobile